sensor_id;sensor_type;location;lat;lon;timestamp;P1;durP1;ratioP1;P2;durP2;ratioP2
78298;SDS011;67556;55.656;12.590;2024-01-30T00:00:30;12.55;;;8.93;;
78298;SDS011;67556;55.656;12.590;2024-01-30T00:03:17;14.13;;;10.27;;
78298;SDS011;67556;55.656;12.590;2024-01-30T00:05:46;13.60;;;10.00;;
78298;SDS011;67556;55.656;12.590;2024-01-30T00:08:39;14.98;;;10.00;;
78298;SDS011;67556;55.656;12.590;2024-01-30T00:11:07;17.88;;;11.07;;
78298;SDS011;67556;55.656;12.590;2024-01-30T00:13:52;16.85;;;11.23;;
78298;SDS011;67556;55.656;12.590;2024-01-30T00:16:20;25.33;;;12.45;;
78298;SDS011;67556;55.656;12.590;2024-01-30T00:19:07;26.58;;;12.25;;
78298;SDS011;67556;55.656;12.590;2024-01-30T00:21:33;36.42;;;14.63;;
78298;SDS011;67556;55.656;12.590;2024-01-30T00:24:18;29.45;;;16.27;;
78298;SDS011;67556;55.656;12.590;2024-01-30T00:26:45;27.50;;;13.77;;
78298;SDS011;67556;55.656;12.590;2024-01-30T00:29:30;32.45;;;14.57;;
78298;SDS011;67556;55.656;12.590;2024-01-30T00:32:05;33.80;;;14.38;;
78298;SDS011;67556;55.656;12.590;2024-01-30T00:34:51;31.70;;;14.93;;
78298;SDS011;67556;55.656;12.590;2024-01-30T00:37:18;38.25;;;17.00;;
78298;SDS011;67556;55.656;12.590;2024-01-30T00:40:03;32.55;;;14.27;;
78298;SDS011;67556;55.656;12.590;2024-01-30T00:42:31;33.78;;;15.38;;
78298;SDS011;67556;55.656;12.590;2024-01-30T00:45:16;34.30;;;15.43;;
78298;SDS011;67556;55.656;12.590;2024-01-30T00:47:43;36.65;;;16.73;;
78298;SDS011;67556;55.656;12.590;2024-01-30T00:50:29;37.58;;;16.83;;
78298;SDS011;67556;55.656;12.590;2024-01-30T00:52:56;35.65;;;17.17;;
78298;SDS011;67556;55.656;12.590;2024-01-30T00:55:41;38.30;;;16.30;;
78298;SDS011;67556;55.656;12.590;2024-01-30T00:58:07;37.28;;;15.98;;
78298;SDS011;67556;55.656;12.590;2024-01-30T01:00:52;37.47;;;17.33;;
78298;SDS011;67556;55.656;12.590;2024-01-30T01:03:37;36.85;;;17.63;;
78298;SDS011;67556;55.656;12.590;2024-01-30T01:06:07;37.97;;;16.90;;
78298;SDS011;67556;55.656;12.590;2024-01-30T01:08:59;38.15;;;16.05;;
78298;SDS011;67556;55.656;12.590;2024-01-30T01:11:25;39.20;;;16.88;;
78298;SDS011;67556;55.656;12.590;2024-01-30T01:14:10;34.95;;;16.50;;
78298;SDS011;67556;55.656;12.590;2024-01-30T01:16:36;39.25;;;17.92;;
78298;SDS011;67556;55.656;12.590;2024-01-30T01:19:22;34.40;;;17.55;;
78298;SDS011;67556;55.656;12.590;2024-01-30T01:21:49;36.20;;;17.92;;
78298;SDS011;67556;55.656;12.590;2024-01-30T01:24:22;36.92;;;16.67;;
78298;SDS011;67556;55.656;12.590;2024-01-30T01:27:07;39.65;;;17.75;;
78298;SDS011;67556;55.656;12.590;2024-01-30T01:29:52;42.95;;;17.70;;
78298;SDS011;67556;55.656;12.590;2024-01-30T01:32:37;37.75;;;17.55;;
78298;SDS011;67556;55.656;12.590;2024-01-30T01:35:09;41.88;;;18.48;;
78298;SDS011;67556;55.656;12.590;2024-01-30T01:37:56;37.45;;;16.40;;
78298;SDS011;67556;55.656;12.590;2024-01-30T01:40:24;33.53;;;16.23;;
78298;SDS011;67556;55.656;12.590;2024-01-30T01:43:10;34.97;;;17.98;;
78298;SDS011;67556;55.656;12.590;2024-01-30T01:45:36;35.08;;;16.30;;
78298;SDS011;67556;55.656;12.590;2024-01-30T01:48:21;36.50;;;17.58;;
78298;SDS011;67556;55.656;12.590;2024-01-30T01:50:47;34.88;;;17.75;;
78298;SDS011;67556;55.656;12.590;2024-01-30T01:53:34;38.10;;;17.38;;
78298;SDS011;67556;55.656;12.590;2024-01-30T01:56:01;35.47;;;18.27;;
78298;SDS011;67556;55.656;12.590;2024-01-30T01:58:46;36.60;;;17.70;;
78298;SDS011;67556;55.656;12.590;2024-01-30T02:01:14;39.35;;;18.80;;
78298;SDS011;67556;55.656;12.590;2024-01-30T02:03:59;41.70;;;18.58;;
78298;SDS011;67556;55.656;12.590;2024-01-30T02:06:28;37.05;;;17.77;;
78298;SDS011;67556;55.656;12.590;2024-01-30T02:09:21;41.47;;;18.40;;
78298;SDS011;67556;55.656;12.590;2024-01-30T02:11:48;41.45;;;18.65;;
78298;SDS011;67556;55.656;12.590;2024-01-30T02:14:16;36.97;;;18.52;;
78298;SDS011;67556;55.656;12.590;2024-01-30T02:16:50;39.63;;;18.42;;
78298;SDS011;67556;55.656;12.590;2024-01-30T02:19:35;45.40;;;19.50;;
78298;SDS011;67556;55.656;12.590;2024-01-30T02:22:03;42.00;;;19.70;;
78298;SDS011;67556;55.656;12.590;2024-01-30T02:24:30;44.92;;;20.15;;
78298;SDS011;67556;55.656;12.590;2024-01-30T02:27:15;39.90;;;17.63;;
78298;SDS011;67556;55.656;12.590;2024-01-30T02:29:42;46.45;;;20.25;;
78298;SDS011;67556;55.656;12.590;2024-01-30T02:32:27;43.75;;;19.55;;
78298;SDS011;67556;55.656;12.590;2024-01-30T02:35:00;43.10;;;19.60;;
78298;SDS011;67556;55.656;12.590;2024-01-30T02:37:46;49.08;;;20.35;;
78298;SDS011;67556;55.656;12.590;2024-01-30T02:40:13;46.55;;;19.45;;
78298;SDS011;67556;55.656;12.590;2024-01-30T02:42:58;44.28;;;19.73;;
78298;SDS011;67556;55.656;12.590;2024-01-30T02:45:25;42.70;;;18.48;;
78298;SDS011;67556;55.656;12.590;2024-01-30T02:48:10;38.60;;;17.50;;
78298;SDS011;67556;55.656;12.590;2024-01-30T02:50:36;42.38;;;17.38;;
78298;SDS011;67556;55.656;12.590;2024-01-30T02:53:22;45.08;;;17.83;;
78298;SDS011;67556;55.656;12.590;2024-01-30T02:55:49;47.45;;;20.10;;
78298;SDS011;67556;55.656;12.590;2024-01-30T02:58:33;42.72;;;17.83;;
78298;SDS011;67556;55.656;12.590;2024-01-30T03:01:00;39.38;;;18.48;;
78298;SDS011;67556;55.656;12.590;2024-01-30T03:03:45;44.40;;;17.83;;
78298;SDS011;67556;55.656;12.590;2024-01-30T03:06:11;40.75;;;18.50;;
78298;SDS011;67556;55.656;12.590;2024-01-30T03:09:00;44.05;;;19.55;;
78298;SDS011;67556;55.656;12.590;2024-01-30T03:11:28;42.60;;;17.48;;
78298;SDS011;67556;55.656;12.590;2024-01-30T03:14:13;40.58;;;18.65;;
78298;SDS011;67556;55.656;12.590;2024-01-30T03:16:58;42.05;;;19.05;;
78298;SDS011;67556;55.656;12.590;2024-01-30T03:19:24;41.05;;;17.85;;
78298;SDS011;67556;55.656;12.590;2024-01-30T03:22:09;41.45;;;17.63;;
78298;SDS011;67556;55.656;12.590;2024-01-30T03:24:37;41.17;;;17.63;;
78298;SDS011;67556;55.656;12.590;2024-01-30T03:27:22;43.10;;;18.00;;
78298;SDS011;67556;55.656;12.590;2024-01-30T03:29:49;39.85;;;18.40;;
78298;SDS011;67556;55.656;12.590;2024-01-30T03:32:33;38.80;;;18.33;;
78298;SDS011;67556;55.656;12.590;2024-01-30T03:35:13;40.50;;;17.55;;
78298;SDS011;67556;55.656;12.590;2024-01-30T03:37:58;42.00;;;18.60;;
78298;SDS011;67556;55.656;12.590;2024-01-30T03:40:26;42.75;;;16.30;;
78298;SDS011;67556;55.656;12.590;2024-01-30T03:43:11;45.70;;;18.02;;
78298;SDS011;67556;55.656;12.590;2024-01-30T03:45:43;52.05;;;18.95;;
78298;SDS011;67556;55.656;12.590;2024-01-30T03:48:28;45.60;;;18.38;;
78298;SDS011;67556;55.656;12.590;2024-01-30T03:50:55;47.63;;;18.95;;
78298;SDS011;67556;55.656;12.590;2024-01-30T03:53:40;43.78;;;17.60;;
78298;SDS011;67556;55.656;12.590;2024-01-30T03:56:08;47.75;;;19.48;;
78298;SDS011;67556;55.656;12.590;2024-01-30T03:58:53;44.88;;;17.80;;
78298;SDS011;67556;55.656;12.590;2024-01-30T04:01:39;47.45;;;18.30;;
78298;SDS011;67556;55.656;12.590;2024-01-30T04:04:05;46.88;;;19.60;;
78298;SDS011;67556;55.656;12.590;2024-01-30T04:06:43;46.65;;;19.13;;
78298;SDS011;67556;55.656;12.590;2024-01-30T04:09:28;45.33;;;17.67;;
78298;SDS011;67556;55.656;12.590;2024-01-30T04:11:58;53.30;;;19.65;;
78298;SDS011;67556;55.656;12.590;2024-01-30T04:14:43;47.45;;;20.20;;
78298;SDS011;67556;55.656;12.590;2024-01-30T04:17:09;52.03;;;18.67;;
78298;SDS011;67556;55.656;12.590;2024-01-30T04:19:54;47.17;;;19.40;;
78298;SDS011;67556;55.656;12.590;2024-01-30T04:22:20;50.58;;;19.00;;
78298;SDS011;67556;55.656;12.590;2024-01-30T04:25:06;53.65;;;19.42;;
78298;SDS011;67556;55.656;12.590;2024-01-30T04:27:34;49.53;;;17.67;;
78298;SDS011;67556;55.656;12.590;2024-01-30T04:30:19;51.45;;;19.20;;
78298;SDS011;67556;55.656;12.590;2024-01-30T04:32:46;45.00;;;18.52;;
78298;SDS011;67556;55.656;12.590;2024-01-30T04:35:31;43.97;;;17.05;;
78298;SDS011;67556;55.656;12.590;2024-01-30T04:37:58;43.60;;;17.73;;
78298;SDS011;67556;55.656;12.590;2024-01-30T04:40:43;47.97;;;18.58;;
78298;SDS011;67556;55.656;12.590;2024-01-30T04:43:10;46.17;;;18.63;;
78298;SDS011;67556;55.656;12.590;2024-01-30T04:45:55;46.42;;;16.48;;
78298;SDS011;67556;55.656;12.590;2024-01-30T04:48:22;42.17;;;16.23;;
78298;SDS011;67556;55.656;12.590;2024-01-30T04:51:07;45.47;;;17.95;;
78298;SDS011;67556;55.656;12.590;2024-01-30T04:53:33;39.25;;;16.52;;
78298;SDS011;67556;55.656;12.590;2024-01-30T04:56:18;42.88;;;17.80;;
78298;SDS011;67556;55.656;12.590;2024-01-30T04:58:46;48.08;;;17.75;;
78298;SDS011;67556;55.656;12.590;2024-01-30T05:01:31;43.88;;;17.73;;
78298;SDS011;67556;55.656;12.590;2024-01-30T05:03:58;51.10;;;19.67;;
78298;SDS011;67556;55.656;12.590;2024-01-30T05:06:42;49.05;;;18.67;;
78298;SDS011;67556;55.656;12.590;2024-01-30T05:09:09;46.92;;;17.38;;
78298;SDS011;67556;55.656;12.590;2024-01-30T05:11:54;47.88;;;18.77;;
78298;SDS011;67556;55.656;12.590;2024-01-30T05:14:22;50.63;;;17.48;;
78298;SDS011;67556;55.656;12.590;2024-01-30T05:17:07;50.00;;;17.05;;
78298;SDS011;67556;55.656;12.590;2024-01-30T05:19:35;41.30;;;16.67;;
78298;SDS011;67556;55.656;12.590;2024-01-30T05:22:20;54.22;;;18.63;;
78298;SDS011;67556;55.656;12.590;2024-01-30T05:24:46;48.63;;;17.30;;
78298;SDS011;67556;55.656;12.590;2024-01-30T05:27:31;44.85;;;16.35;;
78298;SDS011;67556;55.656;12.590;2024-01-30T05:29:58;47.30;;;17.50;;
78298;SDS011;67556;55.656;12.590;2024-01-30T05:32:44;46.65;;;17.08;;
78298;SDS011;67556;55.656;12.590;2024-01-30T05:35:10;49.67;;;17.17;;
78298;SDS011;67556;55.656;12.590;2024-01-30T05:37:56;49.38;;;17.05;;
78298;SDS011;67556;55.656;12.590;2024-01-30T05:40:22;72.55;;;17.52;;
78298;SDS011;67556;55.656;12.590;2024-01-30T05:43:07;57.13;;;15.57;;
78298;SDS011;67556;55.656;12.590;2024-01-30T05:45:35;69.25;;;21.40;;
78298;SDS011;67556;55.656;12.590;2024-01-30T05:48:15;68.30;;;18.98;;
78298;SDS011;67556;55.656;12.590;2024-01-30T05:51:01;62.72;;;17.92;;
78298;SDS011;67556;55.656;12.590;2024-01-30T05:53:29;59.30;;;18.00;;
78298;SDS011;67556;55.656;12.590;2024-01-30T05:56:14;57.53;;;18.17;;
78298;SDS011;67556;55.656;12.590;2024-01-30T05:58:40;63.95;;;17.42;;
78298;SDS011;67556;55.656;12.590;2024-01-30T06:01:28;61.80;;;18.48;;
78298;SDS011;67556;55.656;12.590;2024-01-30T06:03:54;65.07;;;18.00;;
78298;SDS011;67556;55.656;12.590;2024-01-30T06:06:39;58.33;;;19.00;;
78298;SDS011;67556;55.656;12.590;2024-01-30T06:09:06;49.33;;;18.40;;
78298;SDS011;67556;55.656;12.590;2024-01-30T06:11:52;64.57;;;18.77;;
78298;SDS011;67556;55.656;12.590;2024-01-30T06:14:18;65.35;;;20.90;;
78298;SDS011;67556;55.656;12.590;2024-01-30T06:17:11;69.30;;;17.60;;
78298;SDS011;67556;55.656;12.590;2024-01-30T06:19:37;81.20;;;20.08;;
78298;SDS011;67556;55.656;12.590;2024-01-30T06:22:23;60.28;;;18.00;;
78298;SDS011;67556;55.656;12.590;2024-01-30T06:24:49;56.90;;;18.85;;
78298;SDS011;67556;55.656;12.590;2024-01-30T06:27:35;57.15;;;18.23;;
78298;SDS011;67556;55.656;12.590;2024-01-30T06:30:01;59.08;;;17.70;;
78298;SDS011;67556;55.656;12.590;2024-01-30T06:32:47;66.20;;;21.42;;
78298;SDS011;67556;55.656;12.590;2024-01-30T06:35:14;65.95;;;19.05;;
78298;SDS011;67556;55.656;12.590;2024-01-30T06:37:59;58.55;;;19.05;;
78298;SDS011;67556;55.656;12.590;2024-01-30T06:40:27;58.28;;;19.73;;
78298;SDS011;67556;55.656;12.590;2024-01-30T06:43:12;70.25;;;21.02;;
78298;SDS011;67556;55.656;12.590;2024-01-30T06:45:57;61.50;;;18.42;;
78298;SDS011;67556;55.656;12.590;2024-01-30T06:48:25;73.00;;;19.95;;
78298;SDS011;67556;55.656;12.590;2024-01-30T06:51:10;58.28;;;19.33;;
78298;SDS011;67556;55.656;12.590;2024-01-30T06:53:37;58.15;;;17.58;;
78298;SDS011;67556;55.656;12.590;2024-01-30T06:56:22;57.63;;;20.80;;
78298;SDS011;67556;55.656;12.590;2024-01-30T06:58:49;103.15;;;21.70;;
78298;SDS011;67556;55.656;12.590;2024-01-30T07:01:34;59.63;;;21.50;;
78298;SDS011;67556;55.656;12.590;2024-01-30T07:04:02;61.03;;;19.95;;
78298;SDS011;67556;55.656;12.590;2024-01-30T07:06:47;60.53;;;18.90;;
78298;SDS011;67556;55.656;12.590;2024-01-30T07:09:13;63.45;;;19.48;;
78298;SDS011;67556;55.656;12.590;2024-01-30T07:11:58;55.95;;;20.35;;
78298;SDS011;67556;55.656;12.590;2024-01-30T07:14:24;61.17;;;20.67;;
78298;SDS011;67556;55.656;12.590;2024-01-30T07:17:16;57.47;;;20.23;;
78298;SDS011;67556;55.656;12.590;2024-01-30T07:19:43;54.53;;;19.58;;
78298;SDS011;67556;55.656;12.590;2024-01-30T07:22:29;55.70;;;18.63;;
78298;SDS011;67556;55.656;12.590;2024-01-30T07:24:56;52.60;;;18.90;;
78298;SDS011;67556;55.656;12.590;2024-01-30T07:27:41;53.17;;;18.38;;
78298;SDS011;67556;55.656;12.590;2024-01-30T07:30:07;50.42;;;17.80;;
78298;SDS011;67556;55.656;12.590;2024-01-30T07:32:53;60.22;;;19.10;;
78298;SDS011;67556;55.656;12.590;2024-01-30T07:35:21;53.75;;;19.95;;
78298;SDS011;67556;55.656;12.590;2024-01-30T07:38:06;59.78;;;18.48;;
78298;SDS011;67556;55.656;12.590;2024-01-30T07:40:32;53.80;;;18.83;;
78298;SDS011;67556;55.656;12.590;2024-01-30T07:43:18;51.08;;;19.02;;
78298;SDS011;67556;55.656;12.590;2024-01-30T07:45:45;55.28;;;18.30;;
78298;SDS011;67556;55.656;12.590;2024-01-30T07:48:30;54.05;;;18.98;;
78298;SDS011;67556;55.656;12.590;2024-01-30T07:50:59;54.08;;;18.13;;
78298;SDS011;67556;55.656;12.590;2024-01-30T07:53:44;52.50;;;19.00;;
78298;SDS011;67556;55.656;12.590;2024-01-30T07:56:11;55.10;;;19.23;;
78298;SDS011;67556;55.656;12.590;2024-01-30T07:58:56;49.45;;;18.23;;
78298;SDS011;67556;55.656;12.590;2024-01-30T08:01:22;47.50;;;18.33;;
78298;SDS011;67556;55.656;12.590;2024-01-30T08:04:08;51.10;;;19.48;;
78298;SDS011;67556;55.656;12.590;2024-01-30T08:06:35;52.22;;;17.92;;
78298;SDS011;67556;55.656;12.590;2024-01-30T08:09:20;50.47;;;17.52;;
78298;SDS011;67556;55.656;12.590;2024-01-30T08:11:47;49.80;;;19.08;;
78298;SDS011;67556;55.656;12.590;2024-01-30T08:14:32;50.47;;;17.05;;
78298;SDS011;67556;55.656;12.590;2024-01-30T08:16:58;47.53;;;16.73;;
78298;SDS011;67556;55.656;12.590;2024-01-30T08:19:43;53.53;;;17.60;;
78298;SDS011;67556;55.656;12.590;2024-01-30T08:22:11;41.40;;;17.17;;
78298;SDS011;67556;55.656;12.590;2024-01-30T08:24:57;43.70;;;16.33;;
78298;SDS011;67556;55.656;12.590;2024-01-30T08:27:23;51.70;;;16.77;;
78298;SDS011;67556;55.656;12.590;2024-01-30T08:30:09;48.47;;;16.35;;
78298;SDS011;67556;55.656;12.590;2024-01-30T08:32:35;44.53;;;15.73;;
78298;SDS011;67556;55.656;12.590;2024-01-30T08:35:20;43.33;;;15.52;;
78298;SDS011;67556;55.656;12.590;2024-01-30T08:37:48;46.30;;;17.30;;
78298;SDS011;67556;55.656;12.590;2024-01-30T08:40:34;41.95;;;15.45;;
78298;SDS011;67556;55.656;12.590;2024-01-30T08:43:01;38.25;;;15.80;;
78298;SDS011;67556;55.656;12.590;2024-01-30T08:45:47;34.42;;;13.75;;
78298;SDS011;67556;55.656;12.590;2024-01-30T08:48:14;36.53;;;13.55;;
78298;SDS011;67556;55.656;12.590;2024-01-30T08:50:59;38.22;;;15.35;;
78298;SDS011;67556;55.656;12.590;2024-01-30T08:53:26;31.73;;;13.77;;
78298;SDS011;67556;55.656;12.590;2024-01-30T08:55:56;34.08;;;15.13;;
78298;SDS011;67556;55.656;12.590;2024-01-30T08:58:42;33.03;;;13.18;;
78298;SDS011;67556;55.656;12.590;2024-01-30T09:01:09;36.40;;;13.65;;
78298;SDS011;67556;55.656;12.590;2024-01-30T09:03:56;34.47;;;12.98;;
78298;SDS011;67556;55.656;12.590;2024-01-30T09:06:22;37.58;;;13.45;;
78298;SDS011;67556;55.656;12.590;2024-01-30T09:09:11;30.13;;;12.93;;
78298;SDS011;67556;55.656;12.590;2024-01-30T09:11:38;34.70;;;12.43;;
78298;SDS011;67556;55.656;12.590;2024-01-30T09:14:23;35.55;;;12.07;;
78298;SDS011;67556;55.656;12.590;2024-01-30T09:16:49;25.42;;;10.55;;
78298;SDS011;67556;55.656;12.590;2024-01-30T09:19:45;27.88;;;11.77;;
78298;SDS011;67556;55.656;12.590;2024-01-30T09:22:11;27.63;;;12.05;;
78298;SDS011;67556;55.656;12.590;2024-01-30T09:24:57;27.73;;;10.85;;
78298;SDS011;67556;55.656;12.590;2024-01-30T09:27:24;28.13;;;10.50;;
78298;SDS011;67556;55.656;12.590;2024-01-30T09:30:10;26.17;;;11.38;;
78298;SDS011;67556;55.656;12.590;2024-01-30T09:32:36;29.25;;;10.63;;
78298;SDS011;67556;55.656;12.590;2024-01-30T09:35:21;36.28;;;10.32;;
78298;SDS011;67556;55.656;12.590;2024-01-30T09:37:48;34.38;;;11.95;;
78298;SDS011;67556;55.656;12.590;2024-01-30T09:40:34;32.33;;;10.65;;
78298;SDS011;67556;55.656;12.590;2024-01-30T09:43:07;33.40;;;11.57;;
78298;SDS011;67556;55.656;12.590;2024-01-30T09:45:52;31.50;;;12.13;;
78298;SDS011;67556;55.656;12.590;2024-01-30T09:48:19;36.20;;;10.90;;
78298;SDS011;67556;55.656;12.590;2024-01-30T09:51:04;22.48;;;9.98;;
78298;SDS011;67556;55.656;12.590;2024-01-30T09:53:31;25.90;;;9.77;;
78298;SDS011;67556;55.656;12.590;2024-01-30T09:56:18;27.00;;;10.82;;
78298;SDS011;67556;55.656;12.590;2024-01-30T09:58:45;24.05;;;10.13;;
78298;SDS011;67556;55.656;12.590;2024-01-30T10:01:33;18.48;;;9.02;;
78298;SDS011;67556;55.656;12.590;2024-01-30T10:04:00;25.30;;;8.95;;
78298;SDS011;67556;55.656;12.590;2024-01-30T10:06:46;20.67;;;9.02;;
78298;SDS011;67556;55.656;12.590;2024-01-30T10:09:12;30.05;;;8.75;;
78298;SDS011;67556;55.656;12.590;2024-01-30T10:11:59;19.83;;;8.38;;
78298;SDS011;67556;55.656;12.590;2024-01-30T10:14:25;21.88;;;9.25;;
78298;SDS011;67556;55.656;12.590;2024-01-30T10:17:11;20.30;;;7.93;;
78298;SDS011;67556;55.656;12.590;2024-01-30T10:19:39;21.15;;;9.00;;
78298;SDS011;67556;55.656;12.590;2024-01-30T10:22:24;20.05;;;8.90;;
78298;SDS011;67556;55.656;12.590;2024-01-30T10:24:50;15.18;;;7.95;;
78298;SDS011;67556;55.656;12.590;2024-01-30T10:27:38;17.35;;;8.10;;
78298;SDS011;67556;55.656;12.590;2024-01-30T10:30:06;16.52;;;8.35;;
78298;SDS011;67556;55.656;12.590;2024-01-30T10:32:51;20.80;;;8.38;;
78298;SDS011;67556;55.656;12.590;2024-01-30T10:35:17;19.38;;;8.32;;
78298;SDS011;67556;55.656;12.590;2024-01-30T10:38:02;21.25;;;10.50;;
78298;SDS011;67556;55.656;12.590;2024-01-30T10:40:29;14.40;;;8.90;;
78298;SDS011;67556;55.656;12.590;2024-01-30T10:43:18;15.63;;;7.97;;
78298;SDS011;67556;55.656;12.590;2024-01-30T10:45:47;16.00;;;8.23;;
78298;SDS011;67556;55.656;12.590;2024-01-30T10:48:33;18.17;;;7.95;;
78298;SDS011;67556;55.656;12.590;2024-01-30T10:51:05;17.38;;;7.80;;
78298;SDS011;67556;55.656;12.590;2024-01-30T10:53:50;19.27;;;8.18;;
78298;SDS011;67556;55.656;12.590;2024-01-30T10:56:16;22.85;;;7.95;;
78298;SDS011;67556;55.656;12.590;2024-01-30T10:59:03;17.30;;;8.57;;
78298;SDS011;67556;55.656;12.590;2024-01-30T11:01:30;18.00;;;8.85;;
78298;SDS011;67556;55.656;12.590;2024-01-30T11:04:15;19.85;;;9.43;;
78298;SDS011;67556;55.656;12.590;2024-01-30T11:06:41;19.95;;;9.05;;
78298;SDS011;67556;55.656;12.590;2024-01-30T11:09:28;19.80;;;9.07;;
78298;SDS011;67556;55.656;12.590;2024-01-30T11:11:56;16.65;;;8.95;;
78298;SDS011;67556;55.656;12.590;2024-01-30T11:14:45;17.30;;;9.13;;
78298;SDS011;67556;55.656;12.590;2024-01-30T11:17:11;18.48;;;10.20;;
78298;SDS011;67556;55.656;12.590;2024-01-30T11:20:02;20.20;;;10.60;;
78298;SDS011;67556;55.656;12.590;2024-01-30T11:22:30;25.55;;;10.45;;
78298;SDS011;67556;55.656;12.590;2024-01-30T11:25:15;20.60;;;10.77;;
78298;SDS011;67556;55.656;12.590;2024-01-30T11:27:42;22.45;;;9.63;;
78298;SDS011;67556;55.656;12.590;2024-01-30T11:30:29;25.45;;;10.95;;
78298;SDS011;67556;55.656;12.590;2024-01-30T11:33:02;26.90;;;10.10;;
78298;SDS011;67556;55.656;12.590;2024-01-30T11:35:49;24.02;;;11.15;;
78298;SDS011;67556;55.656;12.590;2024-01-30T11:38:16;19.25;;;9.45;;
78298;SDS011;67556;55.656;12.590;2024-01-30T11:41:01;21.38;;;9.90;;
78298;SDS011;67556;55.656;12.590;2024-01-30T11:43:34;23.58;;;12.80;;
78298;SDS011;67556;55.656;12.590;2024-01-30T11:46:22;24.02;;;10.38;;
78298;SDS011;67556;55.656;12.590;2024-01-30T11:48:51;20.45;;;9.00;;
78298;SDS011;67556;55.656;12.590;2024-01-30T11:51:37;26.40;;;10.43;;
78298;SDS011;67556;55.656;12.590;2024-01-30T11:54:03;18.65;;;9.55;;
78298;SDS011;67556;55.656;12.590;2024-01-30T11:56:48;20.80;;;9.18;;
78298;SDS011;67556;55.656;12.590;2024-01-30T11:59:14;21.23;;;9.93;;
78298;SDS011;67556;55.656;12.590;2024-01-30T12:02:01;24.20;;;9.77;;
78298;SDS011;67556;55.656;12.590;2024-01-30T12:04:28;27.70;;;9.65;;
78298;SDS011;67556;55.656;12.590;2024-01-30T12:07:13;18.85;;;9.05;;
78298;SDS011;67556;55.656;12.590;2024-01-30T12:09:41;20.05;;;9.00;;
78298;SDS011;67556;55.656;12.590;2024-01-30T12:12:26;23.90;;;9.02;;
78298;SDS011;67556;55.656;12.590;2024-01-30T12:14:53;23.52;;;8.60;;
78298;SDS011;67556;55.656;12.590;2024-01-30T12:17:40;18.00;;;7.30;;
78298;SDS011;67556;55.656;12.590;2024-01-30T12:20:08;22.10;;;7.78;;
78298;SDS011;67556;55.656;12.590;2024-01-30T12:22:53;21.00;;;9.45;;
78298;SDS011;67556;55.656;12.590;2024-01-30T12:25:20;20.80;;;8.77;;
78298;SDS011;67556;55.656;12.590;2024-01-30T12:28:06;19.27;;;8.70;;
78298;SDS011;67556;55.656;12.590;2024-01-30T12:30:34;17.35;;;7.88;;
78298;SDS011;67556;55.656;12.590;2024-01-30T12:33:21;24.10;;;8.82;;
78298;SDS011;67556;55.656;12.590;2024-01-30T12:35:48;19.35;;;8.32;;
78298;SDS011;67556;55.656;12.590;2024-01-30T12:38:33;23.52;;;9.63;;
78298;SDS011;67556;55.656;12.590;2024-01-30T12:41:17;18.42;;;9.23;;
78298;SDS011;67556;55.656;12.590;2024-01-30T12:44:11;19.20;;;9.50;;
78298;SDS011;67556;55.656;12.590;2024-01-30T12:46:58;17.95;;;8.57;;
78298;SDS011;67556;55.656;12.590;2024-01-30T12:49:26;23.88;;;9.82;;
78298;SDS011;67556;55.656;12.590;2024-01-30T12:52:11;18.23;;;9.45;;
78298;SDS011;67556;55.656;12.590;2024-01-30T12:54:38;17.70;;;9.70;;
78298;SDS011;67556;55.656;12.590;2024-01-30T12:57:23;16.58;;;9.15;;
78298;SDS011;67556;55.656;12.590;2024-01-30T12:59:49;16.48;;;10.13;;
78298;SDS011;67556;55.656;12.590;2024-01-30T13:02:34;16.27;;;9.32;;
78298;SDS011;67556;55.656;12.590;2024-01-30T13:05:03;16.38;;;9.32;;
78298;SDS011;67556;55.656;12.590;2024-01-30T13:07:48;20.45;;;9.82;;
78298;SDS011;67556;55.656;12.590;2024-01-30T13:10:15;17.48;;;10.70;;
78298;SDS011;67556;55.656;12.590;2024-01-30T13:13:00;19.45;;;10.00;;
78298;SDS011;67556;55.656;12.590;2024-01-30T13:15:27;19.83;;;10.65;;
78298;SDS011;67556;55.656;12.590;2024-01-30T13:18:12;15.95;;;9.85;;
78298;SDS011;67556;55.656;12.590;2024-01-30T13:20:41;17.58;;;9.50;;
78298;SDS011;67556;55.656;12.590;2024-01-30T13:23:26;16.27;;;9.70;;
78298;SDS011;67556;55.656;12.590;2024-01-30T13:25:53;19.33;;;11.52;;
78298;SDS011;67556;55.656;12.590;2024-01-30T13:28:42;17.25;;;9.80;;
78298;SDS011;67556;55.656;12.590;2024-01-30T13:31:08;19.23;;;10.18;;
78298;SDS011;67556;55.656;12.590;2024-01-30T13:33:53;16.42;;;10.63;;
78298;SDS011;67556;55.656;12.590;2024-01-30T13:36:21;16.92;;;10.77;;
78298;SDS011;67556;55.656;12.590;2024-01-30T13:39:06;18.60;;;10.98;;
78298;SDS011;67556;55.656;12.590;2024-01-30T13:41:35;17.23;;;10.93;;
78298;SDS011;67556;55.656;12.590;2024-01-30T13:44:27;16.55;;;11.25;;
78298;SDS011;67556;55.656;12.590;2024-01-30T13:47:12;18.42;;;11.05;;
78298;SDS011;67556;55.656;12.590;2024-01-30T13:49:38;16.17;;;10.55;;
78298;SDS011;67556;55.656;12.590;2024-01-30T13:52:24;19.63;;;12.82;;
78298;SDS011;67556;55.656;12.590;2024-01-30T13:54:51;19.27;;;11.55;;
78298;SDS011;67556;55.656;12.590;2024-01-30T13:57:36;21.08;;;12.95;;
78298;SDS011;67556;55.656;12.590;2024-01-30T14:00:05;16.65;;;10.25;;
78298;SDS011;67556;55.656;12.590;2024-01-30T14:02:51;21.40;;;12.80;;
78298;SDS011;67556;55.656;12.590;2024-01-30T14:05:19;18.90;;;11.98;;
78298;SDS011;67556;55.656;12.590;2024-01-30T14:08:06;19.85;;;11.32;;
78298;SDS011;67556;55.656;12.590;2024-01-30T14:10:52;20.33;;;11.98;;
78298;SDS011;67556;55.656;12.590;2024-01-30T14:13:20;19.50;;;12.13;;
78298;SDS011;67556;55.656;12.590;2024-01-30T14:16:06;19.42;;;12.57;;
78298;SDS011;67556;55.656;12.590;2024-01-30T14:18:32;22.52;;;12.43;;
78298;SDS011;67556;55.656;12.590;2024-01-30T14:21:25;20.17;;;11.88;;
78298;SDS011;67556;55.656;12.590;2024-01-30T14:23:53;25.00;;;13.05;;
78298;SDS011;67556;55.656;12.590;2024-01-30T14:26:38;19.55;;;11.85;;
78298;SDS011;67556;55.656;12.590;2024-01-30T14:29:04;21.77;;;13.35;;
78298;SDS011;67556;55.656;12.590;2024-01-30T14:31:49;23.52;;;12.77;;
78298;SDS011;67556;55.656;12.590;2024-01-30T14:34:15;23.25;;;13.38;;
78298;SDS011;67556;55.656;12.590;2024-01-30T14:37:01;22.15;;;12.68;;
78298;SDS011;67556;55.656;12.590;2024-01-30T14:39:29;25.02;;;12.88;;
78298;SDS011;67556;55.656;12.590;2024-01-30T14:42:14;19.75;;;12.40;;
78298;SDS011;67556;55.656;12.590;2024-01-30T14:44:47;20.92;;;12.48;;
78298;SDS011;67556;55.656;12.590;2024-01-30T14:47:33;23.02;;;13.30;;
78298;SDS011;67556;55.656;12.590;2024-01-30T14:50:00;18.85;;;11.98;;
78298;SDS011;67556;55.656;12.590;2024-01-30T14:52:45;21.92;;;13.40;;
78298;SDS011;67556;55.656;12.590;2024-01-30T14:55:25;18.70;;;11.40;;
78298;SDS011;67556;55.656;12.590;2024-01-30T14:58:10;24.00;;;13.65;;
78298;SDS011;67556;55.656;12.590;2024-01-30T15:00:37;20.30;;;12.30;;
78298;SDS011;67556;55.656;12.590;2024-01-30T15:03:22;21.13;;;14.20;;
78298;SDS011;67556;55.656;12.590;2024-01-30T15:05:48;21.35;;;13.48;;